Flight Track Log - Related Links

Times and Time Zones

All times are in EDT time to prevent confusion due to time zone crossing. See the N360FE flight status page for this flight to view local times or setup timezone preferences in your user account.

Time Position Orientation Groundspeed Altitude Reporting Facility
EDT Latitude Longitude Course Direction KTS MPH feet Rate Location/Type
Wed 05:13:50 AM 35.0167 -89.9667 202° Southwest 188 216 1,100  Level KMEM
Wed 05:14:32 AM 34.9833 -89.9833 202° Southwest 170 196 2,000 1,438 Climbing KMEM
Wed 05:15:26 AM 34.9500 -90.0167 219° Southwest 233 268 3,400 2,000 Climbing KMEM
Wed 05:16:32 AM 34.9500 -90.1167 270° West 270 311 6,000 2,455 Climbing KMEM
Wed 05:17:38 AM 34.9667 -90.2167 282° West 277 319 8,800 1,957 Climbing KMEM
Wed 05:18:53 AM 34.9739 -90.3367 274° West 327 376 10,600 1,289 Climbing Memphis Center
Wed 05:19:53 AM 34.9864 -90.4558 277° West 351 404 11,700 1,400 Climbing Memphis Center
Wed 05:20:53 AM 35.0008 -90.5853 278° West 381 438 13,400 1,900 Climbing Memphis Center
Wed 05:21:53 AM 35.0153 -90.7172 278° West 393 452 15,500 2,100 Climbing Memphis Center
Wed 05:22:53 AM 35.0314 -90.8517 278° West 399 459 17,600 1,750 Climbing Memphis Center
Wed 05:23:53 AM 35.0558 -91.0039 281° West 409 471 19,000 1,550 Climbing Memphis Center
Wed 05:24:53 AM 35.0800 -91.1464 282° West 414 476 20,700 1,600 Climbing Memphis Center
Wed 05:25:53 AM 35.1019 -91.2886 281° West 419 482 22,200 1,550 Climbing Memphis Center
Wed 05:26:53 AM 35.1239 -91.4336 281° West 436 502 23,800 1,400 Climbing Memphis Center
Wed 05:27:53 AM 35.1475 -91.5786 281° West 436 502 25,000 1,050 Climbing Memphis Center
Wed 05:28:53 AM 35.1708 -91.7261 281° West 431 496 25,900 1,050 Climbing Memphis Center
Wed 05:29:53 AM 35.1922 -91.8764 280° West 446 513 27,100 1,100 Climbing Memphis Center
Wed 05:30:53 AM 35.2153 -92.0294 280° West 453 521 28,100 1,050 Climbing Memphis Center
Wed 05:31:53 AM 35.2403 -92.1850 281° West 458 527 29,200 1,150 Climbing Memphis Center
Wed 05:32:53 AM 35.2608 -92.3381 279° West 463 533 30,400 1,200 Climbing Memphis Center
Wed 05:33:53 AM 35.2856 -92.4886 281° West 463 533 31,600 1,050 Climbing Memphis Center
Wed 05:34:53 AM 35.3078 -92.6394 280° West 463 533 32,500 900 Climbing Memphis Center
Wed 05:35:53 AM 35.3300 -92.7928 280° West 458 527 33,400 750 Climbing Memphis Center
Wed 05:36:53 AM 35.3539 -92.9461 281° West 458 527 34,000 300 Climbing Memphis Center
Wed 05:37:53 AM 35.3758 -93.0944 280° West 453 521 34,000  Level Memphis Center
Wed 05:38:53 AM 35.3953 -93.2481 279° West 453 521 34,000  Level Memphis Center
Wed 05:39:53 AM 35.4133 -93.3658 281° West 448 516 34,000  Level Memphis Center
Wed 05:45:07 AM 35.5250 -94.1740 281° West 447 514 34,000  Level FlightAware ADS-B
Wed 05:45:47 AM 35.5390 -94.2720 280° West 447 514 34,000  Level FlightAware ADS-B
Wed 05:46:32 AM 35.5550 -94.3860 280° West 445 512 34,000  Level FlightAware ADS-B
Wed 05:47:12 AM 35.5680 -94.4830 279° West 443 510 34,000  Level FlightAware ADS-B
Wed 05:47:52 AM 35.5820 -94.5790 280° West 441 507 34,000  Level FlightAware ADS-B
Wed 05:48:37 AM 35.5970 -94.6880 280° West 442 509 34,000  Level FlightAware ADS-B
Wed 05:49:17 AM 35.6110 -94.7940 279° West 439 505 34,000  Level FlightAware ADS-B
Wed 05:50:02 AM 35.6260 -94.9030 280° West 439 505 34,000  Level FlightAware ADS-B
Wed 05:50:42 AM 35.6390 -95.0010 279° West 439 505 34,000  Level FlightAware ADS-B
Wed 05:51:32 AM 35.6550 -95.1200 279° West 442 509 34,000  Level FlightAware ADS-B
Wed 05:52:17 AM 35.6680 -95.2250 279° West 442 509 34,000 60 Level FlightAware ADS-B
Wed 05:53:12 AM 35.6880 -95.3720 280° West 447 514 34,100 60 Climbing FlightAware ADS-B
Wed 05:53:57 AM 35.7010 -95.4760 279° West 447 514 34,100  Level FlightAware ADS-B
Wed 05:54:42 AM 35.7170 -95.6000 279° West 448 516 34,100 -71 Level FlightAware ADS-B
Wed 05:55:22 AM 35.7300 -95.6990 279° West 444 511 34,000 -80 Descending FlightAware ADS-B
Wed 05:55:57 AM 35.7410 -95.7840 279° West 443 510 34,000  Level FlightAware ADS-B
Wed 05:56:42 AM 35.7540 -95.8880 279° West 443 510 34,000  Level FlightAware ADS-B
Wed 05:57:27 AM 35.7660 -95.9920 278° West 443 510 34,000  Level FlightAware ADS-B
Wed 05:58:12 AM 35.7850 -96.1380 279° West 445 512 34,000  Level FlightAware ADS-B
Wed 05:58:52 AM 35.7970 -96.2330 279° West 446 513 34,000  Level FlightAware ADS-B
Wed 05:59:32 AM 35.8090 -96.3280 279° West 446 513 34,000 60 Level FlightAware ADS-B
Wed 06:00:32 AM 35.8280 -96.4850 279° West 448 516 34,100 67 Climbing FlightAware ADS-B
Wed 06:01:02 AM 35.8360 -96.5530 278° West 448 516 34,100  Level FlightAware ADS-B
Wed 06:02:07 AM 35.8550 -96.7200 278° West 447 514 34,100 -48 Level FlightAware ADS-B
Wed 06:03:07 AM 35.8720 -96.8630 278° West 446 513 34,000 -60 Descending FlightAware ADS-B
Wed 06:03:47 AM 35.8850 -96.9710 278° West 445 512 34,000  Level FlightAware ADS-B
Wed 06:04:22 AM 35.8950 -97.0540 278° West 445 512 34,000  Level FlightAware ADS-B
Wed 06:05:12 AM 35.9070 -97.1610 278° West 445 512 34,000  Level FlightAware ADS-B
Wed 06:05:52 AM 35.9160 -97.2470 277° West 445 512 34,000  Level FlightAware ADS-B
Wed 06:06:42 AM 35.9340 -97.4070 278° West 443 510 34,000  Level FlightAware ADS-B
Wed 06:07:32 AM 35.9500 -97.5420 278° West 442 509 34,000  Level FlightAware ADS-B
Wed 06:08:12 AM 35.9610 -97.6340 278° West 442 509 34,000  Level FlightAware ADS-B
Wed 06:08:57 AM 35.9710 -97.7370 277° West 442 509 34,000  Level FlightAware ADS-B
Wed 06:09:37 AM 35.9790 -97.8220 277° West 442 509 34,000  Level FlightAware ADS-B
Wed 06:10:12 AM 35.9940 -97.9380 279° West 443 510 34,000 71 Level FlightAware ADS-B
Wed 06:11:02 AM 36.0010 -98.0660 274° West 439 505 34,100  Climbing FlightAware ADS-B
Wed 06:11:42 AM 36.0020 -98.1630 271° West 438 504 34,000 -75 Descending FlightAware ADS-B
Wed 06:12:22 AM 36.0020 -98.2570 270° West 438 504 34,000  Level FlightAware ADS-B
Wed 06:13:02 AM 36.0020 -98.3420 270° West 438 504 34,000  Level FlightAware ADS-B
Wed 06:13:42 AM 36.0030 -98.4570 271° West 437 503 34,000  Level FlightAware ADS-B
Wed 06:14:32 AM 36.0030 -98.5640 270° West 437 503 34,000  Level FlightAware ADS-B
Wed 06:15:12 AM 36.0030 -98.6490 270° West 437 503 34,000  Level FlightAware ADS-B
Wed 06:15:52 AM 36.0030 -98.7340 270° West 437 503 34,000  Level FlightAware ADS-B
Wed 06:16:32 AM 36.0030 -98.8190 270° West 437 503 34,000  Level FlightAware ADS-B
Wed 06:17:12 AM 36.0030 -98.9040 270° West 437 503 34,000  Level FlightAware ADS-B
Wed 06:18:02 AM 36.0030 -99.0100 270° West 437 503 34,000  Level FlightAware ADS-B
Wed 06:18:32 AM 36.0030 -99.0730 270° West 437 503 34,000  Level FlightAware ADS-B
Wed 06:19:22 AM 36.0030 -99.1800 270° West 437 503 34,000  Level FlightAware ADS-B
Wed 06:20:02 AM 36.0030 -99.2650 270° West 437 503 34,000  Level FlightAware ADS-B
Wed 06:20:42 AM 36.0030 -99.3500 270° West 437 503 34,000  Level FlightAware ADS-B
Wed 06:21:32 AM 36.0030 -99.4560 270° West 437 503 34,000  Level FlightAware ADS-B
Wed 06:22:12 AM 36.0030 -99.5410 270° West 437 503 34,000  Level FlightAware ADS-B
Wed 06:22:52 AM 36.0030 -99.6260 270° West 437 503 34,000  Level FlightAware ADS-B
Wed 06:23:22 AM 36.0014 -99.8803 270° West 435 501 34,000 66 Level Kansas City Center
Wed 06:24:23 AM 35.9989 -100.0306 269° West 436 502 34,100 50 Climbing Kansas City Center
Wed 06:25:23 AM 36.0031 -100.1817 272° West 437 503 34,100  Level Kansas City Center
Wed 06:25:46 AM 36.0036 -100.2414 271° West 437 503 34,100 -71 Level Albuquerque Center
Wed 06:26:47 AM 36.0067 -100.3908 271° West 436 502 34,000 -50 Descending Albuquerque Center
Wed 06:27:47 AM 36.0094 -100.5381 271° West 433 498 34,000  Level Albuquerque Center
Wed 06:28:47 AM 36.0094 -100.6856 270° West 430 495 34,000  Level Albuquerque Center
Wed 06:29:47 AM 36.0114 -100.8314 271° West 426 490 34,000  Level Albuquerque Center
Wed 06:30:47 AM 36.0122 -100.9800 270° West 429 494 34,000  Level Albuquerque Center
Wed 06:31:48 AM 36.0142 -101.1536 271° West 433 498 34,000 50 Level Albuquerque Center
Wed 06:32:48 AM 36.0153 -101.3014 271° West 434 499 34,100  Climbing Albuquerque Center
Wed 06:33:48 AM 36.0161 -101.4500 270° West 436 502 34,000 -50 Descending Albuquerque Center
Wed 06:34:48 AM 36.0167 -101.5989 270° West 437 503 34,000  Level Albuquerque Center
Wed 06:35:48 AM 36.0178 -101.7469 271° West 436 502 34,000  Level Albuquerque Center
Wed 06:36:49 AM 36.0181 -101.8967 270° West 438 504 34,000  Level Albuquerque Center
Wed 06:37:49 AM 36.0167 -102.0492 269° West 445 512 34,000  Level Albuquerque Center
Wed 06:38:49 AM 36.0172 -102.1992 270° West 442 509 34,000 50 Level Albuquerque Center
Wed 06:39:49 AM 36.0178 -102.3508 270° West 443 510 34,100  Climbing Albuquerque Center
Wed 06:40:49 AM 36.0156 -102.5014 269° West 443 510 34,000 -50 Descending Albuquerque Center
Wed 06:41:50 AM 36.0150 -102.6467 270° West 430 495 34,000  Level Albuquerque Center
Wed 06:42:50 AM 36.0144 -102.7917 270° West 427 491 34,000 50 Level Albuquerque Center
Wed 06:43:50 AM 36.0133 -102.9531 270° West 431 496 34,100  Climbing Albuquerque Center
Wed 06:44:50 AM 36.0119 -103.0958 269° West 419 482 34,000 -50 Descending Albuquerque Center
Wed 06:45:50 AM 36.0106 -103.2383 269° West 413 475 34,000  Level Albuquerque Center
Wed 06:46:51 AM 36.0094 -103.3789 269° West 409 471 34,000  Level Albuquerque Center
Wed 06:47:51 AM 36.0078 -103.4961 269° West 408 470 34,000 50 Level Albuquerque Center
Wed 06:48:51 AM 36.0058 -103.6372 269° West 409 471 34,100  Climbing Albuquerque Center
Wed 06:49:51 AM 36.0042 -103.7764 269° West 407 468 34,000 -50 Descending Albuquerque Center
Wed 06:50:51 AM 36.0028 -103.9156 269° West 405 466 34,000  Level Albuquerque Center
Wed 06:51:52 AM 35.9994 -104.0564 268° West 407 468 34,000 50 Level Albuquerque Center
Wed 06:52:52 AM 36.0019 -104.1964 271° West 407 468 34,100  Climbing Albuquerque Center
Wed 06:53:52 AM 36.0025 -104.3378 270° West 409 471 34,000 -50 Descending Albuquerque Center
Wed 06:54:52 AM 36.0036 -104.4792 271° West 410 472 34,000  Level Albuquerque Center
Wed 06:55:52 AM 36.0039 -104.6214 270° West 412 474 34,000  Level Albuquerque Center
Wed 06:56:53 AM 36.0050 -104.7636 271° West 412 474 34,000  Level Albuquerque Center
Wed 06:57:53 AM 36.0050 -104.9056 270° West 413 475 34,000  Level Albuquerque Center
Wed 07:03:02 AM 36.0030 -105.6500 270° West 408 470 34,000  Level FlightAware ADS-B
Wed 07:03:47 AM 36.0020 -105.7460 269° West 408 470 34,000  Level FlightAware ADS-B
Wed 07:04:27 AM 36.0010 -105.8260 269° West 408 470 34,000  Level FlightAware ADS-B
Wed 07:05:12 AM 36.0010 -105.9480 270° West 394 453 34,000  Level FlightAware ADS-B
Wed 07:05:52 AM 36.0000 -106.0300 269° West 395 455 34,000  Level FlightAware ADS-B
Wed 07:06:32 AM 35.9990 -106.1060 269° West 395 455 34,000  Level FlightAware ADS-B
Wed 07:07:12 AM 35.9980 -106.1830 269° West 395 455 34,000 57 Level FlightAware ADS-B
Wed 07:08:17 AM 36.0030 -106.3700 272° West 409 471 34,100  Climbing FlightAware ADS-B
Wed 07:08:52 AM 36.0040 -106.4580 271° West 406 467 34,000 -63 Descending FlightAware ADS-B
Wed 07:09:52 AM 36.0040 -106.5960 270° West 401 461 34,000  Level FlightAware ADS-B
Wed 07:10:32 AM 36.0040 -106.6870 270° West 399 459 34,000  Level FlightAware ADS-B
Wed 07:11:17 AM 36.0050 -106.7940 271° West 396 456 34,000  Level FlightAware ADS-B
Wed 07:12:07 AM 36.0050 -106.8910 270° West 395 455 34,000  Level FlightAware ADS-B
Wed 07:12:57 AM 36.0050 -107.0190 270° West 394 453 34,000  Level FlightAware ADS-B
Wed 07:13:37 AM 36.0050 -107.1070 270° West 396 456 34,000  Level FlightAware ADS-B
Wed 07:14:17 AM 36.0010 -107.1990 267° West 394 453 34,000 71 Level FlightAware ADS-B
Wed 07:15:02 AM 35.9840 -107.2930 257° West 393 452 34,100 67 Climbing FlightAware ADS-B
Wed 07:15:47 AM 35.9650 -107.3940 257° West 396 456 34,100  Level FlightAware ADS-B
Wed 07:16:27 AM 35.9480 -107.4840 257° West 396 456 34,100  Level FlightAware ADS-B
Wed 07:17:07 AM 35.9320 -107.5660 256° West 399 459 34,100  Level FlightAware ADS-B
Wed 07:17:52 AM 35.9120 -107.6700 257° West 400 460 34,100  Level FlightAware ADS-B
Wed 07:18:32 AM 35.8950 -107.7580 257° West 396 456 34,100 -71 Level FlightAware ADS-B
Wed 07:19:17 AM 35.8760 -107.8540 256° West 388 447 34,000 -71 Descending FlightAware ADS-B
Wed 07:19:57 AM 35.8590 -107.9390 256° West 381 438 34,000  Level FlightAware ADS-B
Wed 07:20:37 AM 35.8440 -108.0140 256° West 381 438 34,000  Level FlightAware ADS-B
Wed 07:21:17 AM 35.8280 -108.0990 257° West 382 440 34,000  Level FlightAware ADS-B
Wed 07:21:57 AM 35.8150 -108.1710 257° West 382 440 34,000  Level FlightAware ADS-B
Wed 07:22:47 AM 35.7980 -108.2620 257° West 382 440 34,000  Level FlightAware ADS-B
Wed 07:23:27 AM 35.7840 -108.3340 257° West 382 440 34,000  Level FlightAware ADS-B
Wed 07:24:02 AM 35.7600 -108.4600 257° West 379 436 34,000  Level FlightAware ADS-B
Wed 07:24:47 AM 35.7440 -108.5420 257° West 379 436 34,000  Level FlightAware ADS-B
Wed 07:25:42 AM 35.7200 -108.6660 257° West 379 436 34,000  Level FlightAware ADS-B
Wed 07:26:32 AM 35.7020 -108.7550 256° West 379 436 34,000  Level FlightAware ADS-B
Wed 07:27:12 AM 35.6880 -108.8260 256° West 379 436 34,000  Level FlightAware ADS-B
Wed 07:27:52 AM 35.6740 -108.8970 256° West 379 436 34,000  Level FlightAware ADS-B
Wed 07:28:32 AM 35.6590 -108.9680 255° West 379 436 34,000  Level FlightAware ADS-B
Wed 07:29:12 AM 35.6450 -109.0390 256° West 379 436 34,000  Level FlightAware ADS-B
Wed 07:30:02 AM 35.6270 -109.1280 256° West 379 436 34,000  Level FlightAware ADS-B
Wed 07:30:42 AM 35.6120 -109.2000 256° West 379 436 34,000  Level FlightAware ADS-B
Wed 07:31:22 AM 35.5980 -109.2710 256° West 379 436 34,000  Level FlightAware ADS-B
Wed 07:32:02 AM 35.5830 -109.3420 255° West 379 436 34,000  Level FlightAware ADS-B
Wed 07:32:42 AM 35.5690 -109.4130 256° West 379 436 34,000  Level FlightAware ADS-B
Wed 07:33:32 AM 35.5510 -109.5020 256° West 379 436 34,000  Level FlightAware ADS-B
Wed 07:34:12 AM 35.5360 -109.5730 255° West 379 436 34,000  Level FlightAware ADS-B
Wed 07:34:52 AM 35.5220 -109.6440 256° West 379 436 34,000 1,304 Level FlightAware ADS-B
Wed 07:35:44 AM 35.4733 -109.9056 256° West 379 436 36,000 1,714 Climbing Los Angeles Center
Wed 07:36:02 AM 35.4650 -109.9500 257° West 377 434 36,000  Level Albuquerque Center
Wed 07:42:07 AM 35.3230 -110.6330 257° West 376 433 36,000  Level FlightAware ADS-B
Wed 07:42:47 AM 35.3070 -110.7110 256° West 376 433 36,000  Level FlightAware ADS-B
Wed 07:43:32 AM 35.2870 -110.8040 255° West 379 436 36,000 71 Level FlightAware ADS-B
Wed 07:44:12 AM 35.2680 -110.8930 255° West 375 432 36,100  Climbing FlightAware ADS-B
Wed 07:44:57 AM 35.2480 -110.9890 256° West 374 430 36,000  Descending FlightAware ADS-B
Wed 07:45:47 AM 35.2260 -111.0900 255° West 364 419 36,100  Climbing FlightAware ADS-B
Wed 07:46:32 AM 35.2080 -111.1750 255° West 361 415 36,000 -60 Descending FlightAware ADS-B
Wed 07:47:27 AM 35.1820 -111.2930 255° West 367 422 36,000  Level FlightAware ADS-B
Wed 07:48:27 AM 35.1570 -111.4080 255° West 364 419 36,000  Level FlightAware ADS-B
Wed 07:49:22 AM 35.1330 -111.5150 255° West 370 426 36,000  Level FlightAware ADS-B
Wed 07:50:12 AM 35.1070 -111.6330 255° West 365 420 36,000  Level FlightAware ADS-B
Wed 07:50:57 AM 35.0760 -111.7750 255° West 361 415 36,000  Level FlightAware ADS-B
Wed 07:51:57 AM 35.0610 -111.8420 255° West 361 415 36,000  Level FlightAware ADS-B
Wed 07:52:52 AM 35.0330 -111.9660 255° West 358 412 36,000  Level FlightAware ADS-B
Wed 07:53:32 AM 35.0080 -112.0800 255° West 358 412 36,000  Level FlightAware ADS-B
Wed 07:54:17 AM 34.9880 -112.1700 255° West 360 414 36,000  Level FlightAware ADS-B
Wed 07:54:57 AM 34.9710 -112.2410 254° West 359 413 36,000  Level FlightAware ADS-B
Wed 07:55:42 AM 34.9510 -112.3330 255° West 360 414 36,000  Level FlightAware ADS-B
Wed 07:56:22 AM 34.9330 -112.4110 254° West 360 414 36,000  Level FlightAware ADS-B
Wed 07:57:02 AM 34.9150 -112.4890 254° West 360 414 36,000  Level FlightAware ADS-B
Wed 07:57:47 AM 34.8950 -112.5770 255° West 361 415 36,000  Level FlightAware ADS-B
Wed 07:58:27 AM 34.8780 -112.6520 255° West 360 414 36,000  Level FlightAware ADS-B
Wed 07:59:12 AM 34.8560 -112.7440 254° West 363 418 36,000  Level FlightAware ADS-B
Wed 07:59:52 AM 34.8380 -112.8230 255° West 365 420 36,000  Level FlightAware ADS-B
Wed 08:00:32 AM 34.8190 -112.9040 254° West 365 420 36,000  Level FlightAware ADS-B
Wed 08:01:17 AM 34.7990 -112.9910 254° West 366 421 36,000  Level FlightAware ADS-B
Wed 08:01:57 AM 34.7810 -113.0690 254° West 369 425 36,000  Level FlightAware ADS-B
Wed 08:02:37 AM 34.7610 -113.1510 253° West 371 427 36,000 71 Level FlightAware ADS-B
Wed 08:03:22 AM 34.7400 -113.2440 255° West 374 430 36,100 71 Climbing FlightAware ADS-B
Wed 08:04:02 AM 34.7210 -113.3240 254° West 371 427 36,100 -71 Level FlightAware ADS-B
Wed 08:04:47 AM 34.6990 -113.4150 254° West 363 418 36,000 -71 Descending FlightAware ADS-B
Wed 08:05:27 AM 34.6810 -113.4900 254° West 361 415 36,000  Level FlightAware ADS-B
Wed 08:06:07 AM 34.6640 -113.5640 254° West 364 419 36,000  Level FlightAware ADS-B
Wed 08:06:52 AM 34.6420 -113.6560 254° West 365 420 36,000  Level FlightAware ADS-B
Wed 08:07:32 AM 34.6230 -113.7330 253° West 366 421 36,000  Level FlightAware ADS-B
Wed 08:08:17 AM 34.6050 -113.8250 257° West 366 421 36,000  Level FlightAware ADS-B
Wed 08:08:52 AM 34.5920 -113.8990 258° West 368 423 36,000  Level FlightAware ADS-B
Wed 08:09:42 AM 34.5740 -113.9980 258° West 370 426 36,000  Level FlightAware ADS-B
Wed 08:10:22 AM 34.5580 -114.0800 257° West 368 423 36,000  Level FlightAware ADS-B
Wed 08:11:02 AM 34.5430 -114.1620 258° West 366 421 36,000  Level FlightAware ADS-B
Wed 08:11:47 AM 34.5270 -114.2480 257° West 368 423 36,000  Level FlightAware ADS-B
Wed 08:12:27 AM 34.5120 -114.3310 258° West 372 428 36,000  Level FlightAware ADS-B
Wed 08:13:12 AM 34.4950 -114.4230 257° West 372 428 36,000  Level FlightAware ADS-B
Wed 08:13:57 AM 34.4780 -114.5080 256° West 369 425 36,000  Level FlightAware ADS-B
Wed 08:14:47 AM 34.4580 -114.6140 257° West 366 421 36,000  Level FlightAware ADS-B
Wed 08:15:37 AM 34.4410 -114.7050 257° West 364 419 36,000  Level FlightAware ADS-B
Wed 08:16:27 AM 34.4200 -114.8130 257° West 369 425 36,000  Level FlightAware ADS-B
Wed 08:17:02 AM 34.4070 -114.8820 257° West 370 426 36,000  Level FlightAware ADS-B
Wed 08:17:52 AM 34.3870 -114.9870 257° West 370 426 36,000  Level FlightAware ADS-B
Wed 08:18:27 AM 34.3740 -115.0470 255° West 371 427 36,000  Level FlightAware ADS-B
Wed 08:19:07 AM 34.3600 -115.1160 256° West 371 427 36,000  Level FlightAware ADS-B
Wed 08:19:57 AM 34.3380 -115.2350 257° West 368 423 36,000  Level FlightAware ADS-B
Wed 08:20:37 AM 34.3230 -115.3160 257° West 369 425 36,000  Level FlightAware ADS-B
Wed 08:21:17 AM 34.3060 -115.3980 256° West 371 427 36,000  Level FlightAware ADS-B
Wed 08:21:52 AM 34.2930 -115.4650 257° West 371 427 36,000  Level FlightAware ADS-B
Wed 08:22:42 AM 34.2720 -115.5710 257° West 367 422 36,000  Level FlightAware ADS-B
Wed 08:23:22 AM 34.2570 -115.6450 256° West 368 423 36,000  Level FlightAware ADS-B
Wed 08:24:02 AM 34.2400 -115.7310 257° West 365 420 36,000  Level FlightAware ADS-B
Wed 08:24:52 AM 34.2210 -115.8260 256° West 365 420 36,000  Level FlightAware ADS-B
Wed 08:25:32 AM 34.2040 -115.9090 256° West 364 419 36,000  Level FlightAware ADS-B
Wed 08:26:12 AM 34.1890 -115.9840 256° West 365 420 36,000  Level FlightAware ADS-B
Wed 08:26:57 AM 34.1710 -116.0720 256° West 371 427 36,000  Level FlightAware ADS-B
Wed 08:27:32 AM 34.1560 -116.1470 256° West 378 435 36,000 -424 Level FlightAware ADS-B
Wed 08:28:22 AM 34.1350 -116.2470 256° West 371 427 35,400 -1,467 Descending FlightAware ADS-B
Wed 08:29:02 AM 34.1190 -116.3260 256° West 357 411 33,800 -2,100 Descending FlightAware ADS-B
Wed 08:29:42 AM 34.1030 -116.4050 256° West 373 429 32,600 -2,047 Descending FlightAware ADS-B
Wed 08:30:27 AM 34.0840 -116.4950 256° West 356 410 30,900 -2,400 Descending FlightAware ADS-B
Wed 08:31:07 AM 34.0680 -116.5710 256° West 344 396 29,200 -2,471 Descending FlightAware ADS-B
Wed 08:31:52 AM 34.0520 -116.6510 256° West 334 384 27,400 -2,471 Descending FlightAware ADS-B
Wed 08:32:32 AM 34.0360 -116.7270 256° West 342 394 25,700 -2,625 Descending FlightAware ADS-B
Wed 08:33:12 AM 34.0210 -116.7990 256° West 343 395 23,900 -2,612 Descending FlightAware ADS-B
Wed 08:33:57 AM 34.0020 -116.8840 255° West 326 375 22,000 -2,400 Descending FlightAware ADS-B
Wed 08:34:37 AM 33.9890 -116.9500 257° West 317 365 20,500 -2,188 Descending FlightAware ADS-B
Wed 08:35:22 AM 33.9720 -117.0270 255° West 306 352 18,900 -2,259 Descending FlightAware ADS-B
Wed 08:36:02 AM 33.9590 -117.0920 256° West 308 354 17,300 -1,800 Descending FlightAware ADS-B
Wed 08:36:42 AM 33.9500 -117.1610 261° West 322 371 16,500 -1,050 Descending FlightAware ADS-B
Wed 08:37:22 AM 33.9440 -117.2350 264° West 323 372 15,900 -847 Descending FlightAware ADS-B
Wed 08:38:07 AM 33.9370 -117.3170 264° West 323 372 15,300 -733 Descending FlightAware ADS-B
Wed 08:38:52 AM 33.9300 -117.3950 264° West 320 368 14,800 -635 Descending FlightAware ADS-B
Wed 08:39:32 AM 33.9240 -117.4650 264° West 319 367 14,400 -640 Descending FlightAware ADS-B
Wed 08:40:07 AM 33.9200 -117.5250 265° West 315 362 14,000 -706 Descending FlightAware ADS-B
Wed 08:40:57 AM 33.9320 -117.6140 279° West 314 361 13,400 -733 Descending FlightAware ADS-B
Wed 08:41:37 AM 33.9420 -117.6850 280° West 317 365 12,900 -706 Descending FlightAware ADS-B
Wed 08:42:22 AM 33.9510 -117.7610 278° West 317 365 12,400 -635 Descending FlightAware ADS-B
Wed 08:43:02 AM 33.9600 -117.8300 279° West 313 360 12,000 -675 Descending FlightAware ADS-B
Wed 08:43:42 AM 33.9690 -117.9000 279° West 317 365 11,500 -706 Descending FlightAware ADS-B
Wed 08:44:27 AM 33.9780 -117.9820 278° West 311 358 11,000 -635 Descending FlightAware ADS-B
Wed 08:45:07 AM 33.9720 -118.0460 264° West 282 325 10,600 -600 Descending FlightAware ADS-B
Wed 08:45:47 AM 33.9670 -118.1070 264° West 273 314 10,200 -600 Descending FlightAware ADS-B
Wed 08:46:17 AM 33.9690 -118.1530 273° West 265 305 9,900 -600 Descending FlightAware ADS-B
Wed 08:46:47 AM 33.9750 -118.1970 279° West 258 297 9,600 -655 Descending FlightAware ADS-B
Wed 08:47:12 AM 33.9790 -118.2280 279° West 237 273 9,300 -764 Descending FlightAware ADS-B
Wed 08:47:42 AM 33.9840 -118.2650 279° West 223 257 8,900 -800 Descending FlightAware ADS-B
Wed 08:48:12 AM 33.9900 -118.3030 281° West 224 258 8,500 -750 Descending FlightAware ADS-B
Wed 08:48:22 AM 33.9920 -118.3160 281° West 224 258 8,400 -750 Descending FlightAware ADS-B
Wed 08:48:52 AM 33.9960 -118.3520 278° West 226 260 8,000 -500 Descending FlightAware ADS-B
Wed 08:49:22 AM 34.0010 -118.3890 279° West 224 258 7,900 -150 Descending FlightAware ADS-B
Wed 08:49:32 AM 34.0030 -118.3990 284° West 225 259 7,900  Level FlightAware ADS-B
Wed 08:50:02 AM 34.0080 -118.4390 279° West 225 259 7,900 -514 Level FlightAware ADS-B
Wed 08:50:42 AM 34.0120 -118.4900 275° West 228 262 7,300 -1,091 Descending FlightAware ADS-B
Wed 08:50:57 AM 34.0130 -118.5110 273° West 226 260 6,900 -1,200 Descending FlightAware ADS-B
Wed 08:51:27 AM 34.0150 -118.5470 274° West 227 261 6,400 -1,091 Descending FlightAware ADS-B
Wed 08:51:52 AM 34.0170 -118.5780 274° West 229 264 5,900 -1,050 Descending FlightAware ADS-B
Wed 08:52:07 AM 34.0190 -118.5950 278° West 228 262 5,700 -1,000 Descending FlightAware ADS-B
Wed 08:52:52 AM 34.0210 -118.6520 272° West 220 253 4,900 -1,114 Descending FlightAware ADS-B
Wed 08:53:17 AM 34.0130 -118.6790 250° West 231 266 4,400 -1,200 Descending FlightAware ADS-B
Wed 08:53:32 AM 33.9980 -118.6880 206° Southwest 235 270 4,100 -1,200 Descending FlightAware ADS-B
Wed 08:53:37 AM 33.9910 -118.6890 187° South 228 262 4,000 -1,200 Descending FlightAware ADS-B
Wed 08:54:07 AM 33.9590 -118.6840 173° South 231 266 3,400 -1,067 Descending FlightAware ADS-B
Wed 08:55:07 AM 33.9270 -118.6230 122° Southeast 199 229 2,400 -918 Descending FlightAware ADS-B
Wed 08:55:32 AM 33.9300 -118.6000 81° East 189 217 2,100 -500 Descending FlightAware ADS-B
Wed 08:56:07 AM 33.9310 -118.5900 83° East 189 217 1,900 -200 Descending FlightAware ADS-B
Wed 08:56:32 AM 33.9320 -118.5790 84° East 188 216 1,900  Level FlightAware ADS-B
Wed 08:57:02 AM 33.9350 -118.5520 82° East 191 220 1,900 -764 Level FlightAware ADS-B
Wed 08:57:27 AM 33.9390 -118.5070 84° East 159 183 1,200 -1,350 Descending FlightAware ADS-B
Wed 08:57:42 AM 33.9410 -118.4920 81° East 138 159 1,000 -800 Descending FlightAware ADS-B
Wed 08:58:12 AM 33.9430 -118.4690 84° East 138 159 600 -655 Descending FlightAware ADS-B
Wed 08:58:37 AM 33.9450 -118.4560 79° East 140 161 400 -450 Descending FlightAware ADS-B
Wed 08:58:52 AM 33.9450 -118.4490 90° East 140 161 300 -514 Descending FlightAware ADS-B
Wed 08:59:12 AM 33.9470 -118.4360 79° East 142 163 100 -600 Descending FlightAware ADS-B
Wed 09:07:00 AM 33.9425 -118.4081 101° East  Level Estimated

Login

Don't have an account? Register now (free) for customized features, flight alerts, and more!